sensor_id;sensor_type;location;lat;lon;timestamp;temperature;humidity
8420;DHT22;4247;48.550;8.822;2022-10-16T00:01:05;14.90;99.90
8420;DHT22;4247;48.550;8.822;2022-10-16T00:03:33;14.80;99.90
8420;DHT22;4247;48.550;8.822;2022-10-16T00:06:03;14.80;99.90
8420;DHT22;4247;48.550;8.822;2022-10-16T00:08:30;14.70;99.90
8420;DHT22;4247;48.550;8.822;2022-10-16T00:11:02;14.70;99.90
8420;DHT22;4247;48.550;8.822;2022-10-16T00:13:31;14.70;99.90
8420;DHT22;4247;48.550;8.822;2022-10-16T00:15:59;14.60;99.90
8420;DHT22;4247;48.550;8.822;2022-10-16T00:18:26;14.60;99.90
8420;DHT22;4247;48.550;8.822;2022-10-16T00:20:54;14.60;99.90
8420;DHT22;4247;48.550;8.822;2022-10-16T00:23:22;14.50;99.90
8420;DHT22;4247;48.550;8.822;2022-10-16T00:25:55;14.50;99.90
8420;DHT22;4247;48.550;8.822;2022-10-16T00:28:28;14.50;99.90
8420;DHT22;4247;48.550;8.822;2022-10-16T00:30:56;14.50;99.90
8420;DHT22;4247;48.550;8.822;2022-10-16T00:33:24;14.40;99.90
8420;DHT22;4247;48.550;8.822;2022-10-16T00:35:51;14.40;99.90
8420;DHT22;4247;48.550;8.822;2022-10-16T00:38:18;14.40;99.90
8420;DHT22;4247;48.550;8.822;2022-10-16T00:40:46;14.40;99.90
8420;DHT22;4247;48.550;8.822;2022-10-16T00:45:58;14.40;99.90
8420;DHT22;4247;48.550;8.822;2022-10-16T00:48:25;14.30;99.90
8420;DHT22;4247;48.550;8.822;2022-10-16T00:51:06;14.30;99.90
8420;DHT22;4247;48.550;8.822;2022-10-16T00:53:34;14.30;99.90
8420;DHT22;4247;48.550;8.822;2022-10-16T00:56:02;14.30;99.90
8420;DHT22;4247;48.550;8.822;2022-10-16T00:58:29;14.30;99.90
8420;DHT22;4247;48.550;8.822;2022-10-16T01:00:57;14.30;99.90
8420;DHT22;4247;48.550;8.822;2022-10-16T01:03:27;14.30;99.90
8420;DHT22;4247;48.550;8.822;2022-10-16T01:06:04;14.30;99.90
8420;DHT22;4247;48.550;8.822;2022-10-16T01:08:39;14.30;99.90
8420;DHT22;4247;48.550;8.822;2022-10-16T01:11:19;14.30;99.90
8420;DHT22;4247;48.550;8.822;2022-10-16T01:13:53;14.30;99.90
8420;DHT22;4247;48.550;8.822;2022-10-16T01:16:28;14.20;99.90
8420;DHT22;4247;48.550;8.822;2022-10-16T01:19:01;14.20;99.90
8420;DHT22;4247;48.550;8.822;2022-10-16T01:21:33;14.30;99.90
8420;DHT22;4247;48.550;8.822;2022-10-16T01:24:06;14.20;99.90
8420;DHT22;4247;48.550;8.822;2022-10-16T01:26:50;14.20;99.90
8420;DHT22;4247;48.550;8.822;2022-10-16T01:29:24;14.30;99.90
8420;DHT22;4247;48.550;8.822;2022-10-16T01:32:00;14.30;99.90
8420;DHT22;4247;48.550;8.822;2022-10-16T01:34:31;14.30;99.90
8420;DHT22;4247;48.550;8.822;2022-10-16T01:37:06;14.30;99.90
8420;DHT22;4247;48.550;8.822;2022-10-16T01:39:38;14.30;99.90
8420;DHT22;4247;48.550;8.822;2022-10-16T01:42:11;14.30;99.90
8420;DHT22;4247;48.550;8.822;2022-10-16T01:44:41;14.40;99.90
8420;DHT22;4247;48.550;8.822;2022-10-16T01:47:10;14.40;99.90
8420;DHT22;4247;48.550;8.822;2022-10-16T01:49:39;14.40;99.90
8420;DHT22;4247;48.550;8.822;2022-10-16T01:52:10;14.40;99.90
8420;DHT22;4247;48.550;8.822;2022-10-16T01:54:41;14.50;99.90
8420;DHT22;4247;48.550;8.822;2022-10-16T01:57:10;14.50;99.90
8420;DHT22;4247;48.550;8.822;2022-10-16T01:59:45;14.50;99.90
8420;DHT22;4247;48.550;8.822;2022-10-16T02:02:19;14.50;99.90
8420;DHT22;4247;48.550;8.822;2022-10-16T02:04:49;14.60;99.90
8420;DHT22;4247;48.550;8.822;2022-10-16T02:07:19;14.60;99.90
8420;DHT22;4247;48.550;8.822;2022-10-16T02:09:46;14.60;99.90
8420;DHT22;4247;48.550;8.822;2022-10-16T02:12:16;14.60;99.90
8420;DHT22;4247;48.550;8.822;2022-10-16T02:14:46;14.60;99.90
8420;DHT22;4247;48.550;8.822;2022-10-16T02:17:16;14.60;99.90
8420;DHT22;4247;48.550;8.822;2022-10-16T02:19:45;14.60;99.90
8420;DHT22;4247;48.550;8.822;2022-10-16T02:22:18;14.70;99.90
8420;DHT22;4247;48.550;8.822;2022-10-16T02:24:53;14.70;99.90
8420;DHT22;4247;48.550;8.822;2022-10-16T02:27:24;14.60;99.90
8420;DHT22;4247;48.550;8.822;2022-10-16T02:29:59;14.60;99.90
8420;DHT22;4247;48.550;8.822;2022-10-16T02:32:44;14.60;99.90
8420;DHT22;4247;48.550;8.822;2022-10-16T02:35:12;14.60;99.90
8420;DHT22;4247;48.550;8.822;2022-10-16T02:37:40;14.60;99.90
8420;DHT22;4247;48.550;8.822;2022-10-16T02:40:08;14.60;99.90
8420;DHT22;4247;48.550;8.822;2022-10-16T02:42:38;14.60;99.90
8420;DHT22;4247;48.550;8.822;2022-10-16T02:45:10;14.60;99.90
8420;DHT22;4247;48.550;8.822;2022-10-16T02:47:37;14.60;99.90
8420;DHT22;4247;48.550;8.822;2022-10-16T02:50:05;14.60;99.90
8420;DHT22;4247;48.550;8.822;2022-10-16T02:52:32;14.60;99.90
8420;DHT22;4247;48.550;8.822;2022-10-16T02:54:59;14.60;99.90
8420;DHT22;4247;48.550;8.822;2022-10-16T02:57:26;14.50;99.90
8420;DHT22;4247;48.550;8.822;2022-10-16T02:59:52;14.60;99.90
8420;DHT22;4247;48.550;8.822;2022-10-16T03:02:21;14.60;99.90
8420;DHT22;4247;48.550;8.822;2022-10-16T03:04:49;14.60;99.90
8420;DHT22;4247;48.550;8.822;2022-10-16T03:07:16;14.60;99.90
8420;DHT22;4247;48.550;8.822;2022-10-16T03:09:42;14.60;99.90
8420;DHT22;4247;48.550;8.822;2022-10-16T03:12:09;14.60;99.90
8420;DHT22;4247;48.550;8.822;2022-10-16T03:14:37;14.60;99.90
8420;DHT22;4247;48.550;8.822;2022-10-16T03:17:08;14.60;99.90
8420;DHT22;4247;48.550;8.822;2022-10-16T03:19:36;14.60;99.90
8420;DHT22;4247;48.550;8.822;2022-10-16T03:22:03;14.60;99.90
8420;DHT22;4247;48.550;8.822;2022-10-16T03:24:30;14.60;99.90
8420;DHT22;4247;48.550;8.822;2022-10-16T03:26:57;14.60;99.90
8420;DHT22;4247;48.550;8.822;2022-10-16T03:29:26;14.60;99.90
8420;DHT22;4247;48.550;8.822;2022-10-16T03:31:54;14.60;99.90
8420;DHT22;4247;48.550;8.822;2022-10-16T03:34:21;14.60;99.90
8420;DHT22;4247;48.550;8.822;2022-10-16T03:36:50;14.60;99.90
8420;DHT22;4247;48.550;8.822;2022-10-16T03:39:17;14.60;99.90
8420;DHT22;4247;48.550;8.822;2022-10-16T03:41:44;14.60;99.90
8420;DHT22;4247;48.550;8.822;2022-10-16T03:44:11;14.60;99.90
8420;DHT22;4247;48.550;8.822;2022-10-16T03:46:38;14.70;99.90
8420;DHT22;4247;48.550;8.822;2022-10-16T03:49:05;14.60;99.90
8420;DHT22;4247;48.550;8.822;2022-10-16T03:51:32;14.70;99.90
8420;DHT22;4247;48.550;8.822;2022-10-16T03:54:00;14.70;99.90
8420;DHT22;4247;48.550;8.822;2022-10-16T03:56:27;14.70;99.90
8420;DHT22;4247;48.550;8.822;2022-10-16T03:58:54;14.70;99.90
8420;DHT22;4247;48.550;8.822;2022-10-16T04:01:23;14.70;99.90
8420;DHT22;4247;48.550;8.822;2022-10-16T04:03:49;14.70;99.90
8420;DHT22;4247;48.550;8.822;2022-10-16T04:06:16;14.70;99.90
8420;DHT22;4247;48.550;8.822;2022-10-16T04:08:43;14.70;99.90
8420;DHT22;4247;48.550;8.822;2022-10-16T04:11:12;14.70;99.90
8420;DHT22;4247;48.550;8.822;2022-10-16T04:13:42;14.70;99.90
8420;DHT22;4247;48.550;8.822;2022-10-16T04:16:09;14.70;99.90
8420;DHT22;4247;48.550;8.822;2022-10-16T04:18:36;14.70;99.90
8420;DHT22;4247;48.550;8.822;2022-10-16T04:21:03;14.70;99.90
8420;DHT22;4247;48.550;8.822;2022-10-16T04:23:30;14.70;99.90
8420;DHT22;4247;48.550;8.822;2022-10-16T04:25:58;14.80;99.90
8420;DHT22;4247;48.550;8.822;2022-10-16T04:28:26;14.80;99.90
8420;DHT22;4247;48.550;8.822;2022-10-16T04:30:53;14.80;99.90
8420;DHT22;4247;48.550;8.822;2022-10-16T04:33:20;14.80;99.90
8420;DHT22;4247;48.550;8.822;2022-10-16T04:35:47;14.80;99.90
8420;DHT22;4247;48.550;8.822;2022-10-16T04:38:14;14.80;99.90
8420;DHT22;4247;48.550;8.822;2022-10-16T04:40:41;14.80;99.90
8420;DHT22;4247;48.550;8.822;2022-10-16T04:43:08;14.80;99.90
8420;DHT22;4247;48.550;8.822;2022-10-16T04:45:37;14.80;99.90
8420;DHT22;4247;48.550;8.822;2022-10-16T04:48:04;14.70;99.90
8420;DHT22;4247;48.550;8.822;2022-10-16T04:50:31;14.80;99.90
8420;DHT22;4247;48.550;8.822;2022-10-16T04:52:58;14.70;99.90
8420;DHT22;4247;48.550;8.822;2022-10-16T04:55:25;14.70;99.90
8420;DHT22;4247;48.550;8.822;2022-10-16T04:57:52;14.70;99.90
8420;DHT22;4247;48.550;8.822;2022-10-16T05:00:19;14.70;99.90
8420;DHT22;4247;48.550;8.822;2022-10-16T05:02:49;14.70;99.90
8420;DHT22;4247;48.550;8.822;2022-10-16T05:05:16;14.70;99.90
8420;DHT22;4247;48.550;8.822;2022-10-16T05:07:44;14.70;99.90
8420;DHT22;4247;48.550;8.822;2022-10-16T05:10:11;14.70;99.90
8420;DHT22;4247;48.550;8.822;2022-10-16T05:12:39;14.70;99.90
8420;DHT22;4247;48.550;8.822;2022-10-16T05:15:06;14.70;99.90
8420;DHT22;4247;48.550;8.822;2022-10-16T05:17:33;14.70;99.90
8420;DHT22;4247;48.550;8.822;2022-10-16T05:20:02;14.70;99.90
8420;DHT22;4247;48.550;8.822;2022-10-16T05:22:29;14.60;99.90
8420;DHT22;4247;48.550;8.822;2022-10-16T05:24:56;14.60;99.90
8420;DHT22;4247;48.550;8.822;2022-10-16T05:27:23;14.50;99.90
8420;DHT22;4247;48.550;8.822;2022-10-16T05:29:50;14.50;99.90
8420;DHT22;4247;48.550;8.822;2022-10-16T05:32:18;14.50;99.90
8420;DHT22;4247;48.550;8.822;2022-10-16T05:34:45;14.50;99.90
8420;DHT22;4247;48.550;8.822;2022-10-16T05:37:14;14.50;99.90
8420;DHT22;4247;48.550;8.822;2022-10-16T05:39:41;14.50;99.90
8420;DHT22;4247;48.550;8.822;2022-10-16T05:42:08;14.50;99.90
8420;DHT22;4247;48.550;8.822;2022-10-16T05:44:35;14.40;99.90
8420;DHT22;4247;48.550;8.822;2022-10-16T05:47:02;14.50;99.90
8420;DHT22;4247;48.550;8.822;2022-10-16T05:49:32;14.40;99.90
8420;DHT22;4247;48.550;8.822;2022-10-16T05:51:59;14.50;99.90
8420;DHT22;4247;48.550;8.822;2022-10-16T05:54:27;14.50;99.90
8420;DHT22;4247;48.550;8.822;2022-10-16T05:56:54;14.60;99.90
8420;DHT22;4247;48.550;8.822;2022-10-16T05:59:21;14.60;99.90
8420;DHT22;4247;48.550;8.822;2022-10-16T06:01:49;14.60;99.90
8420;DHT22;4247;48.550;8.822;2022-10-16T06:04:16;14.60;99.90
8420;DHT22;4247;48.550;8.822;2022-10-16T06:06:43;14.70;99.90
8420;DHT22;4247;48.550;8.822;2022-10-16T06:09:10;14.60;99.90
8420;DHT22;4247;48.550;8.822;2022-10-16T06:11:38;14.70;99.90
8420;DHT22;4247;48.550;8.822;2022-10-16T06:14:05;14.70;99.90
8420;DHT22;4247;48.550;8.822;2022-10-16T06:16:33;14.70;99.90
8420;DHT22;4247;48.550;8.822;2022-10-16T06:19:01;14.70;99.90
8420;DHT22;4247;48.550;8.822;2022-10-16T06:21:29;14.70;99.90
8420;DHT22;4247;48.550;8.822;2022-10-16T06:23:57;14.80;99.90
8420;DHT22;4247;48.550;8.822;2022-10-16T06:26:26;14.80;99.90
8420;DHT22;4247;48.550;8.822;2022-10-16T06:28:56;14.80;99.90
8420;DHT22;4247;48.550;8.822;2022-10-16T06:31:24;14.90;99.90
8420;DHT22;4247;48.550;8.822;2022-10-16T06:33:53;14.90;99.90
8420;DHT22;4247;48.550;8.822;2022-10-16T06:36:22;15.00;99.90
8420;DHT22;4247;48.550;8.822;2022-10-16T06:38:49;15.00;99.90
8420;DHT22;4247;48.550;8.822;2022-10-16T06:41:18;15.00;99.90
8420;DHT22;4247;48.550;8.822;2022-10-16T06:43:46;15.10;99.90
8420;DHT22;4247;48.550;8.822;2022-10-16T06:46:17;15.10;99.90
8420;DHT22;4247;48.550;8.822;2022-10-16T06:48:44;15.10;99.90
8420;DHT22;4247;48.550;8.822;2022-10-16T06:51:12;15.20;99.90
8420;DHT22;4247;48.550;8.822;2022-10-16T06:53:41;15.20;99.90
8420;DHT22;4247;48.550;8.822;2022-10-16T06:56:09;15.30;99.90
8420;DHT22;4247;48.550;8.822;2022-10-16T06:58:36;15.30;99.90
8420;DHT22;4247;48.550;8.822;2022-10-16T07:01:03;15.40;99.90
8420;DHT22;4247;48.550;8.822;2022-10-16T07:03:32;15.40;99.90
8420;DHT22;4247;48.550;8.822;2022-10-16T07:06:02;15.50;99.90
8420;DHT22;4247;48.550;8.822;2022-10-16T07:08:31;15.50;99.90
8420;DHT22;4247;48.550;8.822;2022-10-16T07:10:59;15.60;99.90
8420;DHT22;4247;48.550;8.822;2022-10-16T07:13:26;15.60;99.90
8420;DHT22;4247;48.550;8.822;2022-10-16T07:15:53;15.70;99.90
8420;DHT22;4247;48.550;8.822;2022-10-16T07:18:21;15.70;99.90
8420;DHT22;4247;48.550;8.822;2022-10-16T07:20:53;15.70;99.90
8420;DHT22;4247;48.550;8.822;2022-10-16T07:23:20;15.80;99.90
8420;DHT22;4247;48.550;8.822;2022-10-16T07:25:53;15.80;99.90
8420;DHT22;4247;48.550;8.822;2022-10-16T07:28:21;15.80;99.90
8420;DHT22;4247;48.550;8.822;2022-10-16T07:30:48;15.80;99.90
8420;DHT22;4247;48.550;8.822;2022-10-16T07:33:15;15.80;99.90
8420;DHT22;4247;48.550;8.822;2022-10-16T07:35:50;15.90;99.90
8420;DHT22;4247;48.550;8.822;2022-10-16T07:38:18;15.90;99.90
8420;DHT22;4247;48.550;8.822;2022-10-16T07:40:46;15.90;99.90
8420;DHT22;4247;48.550;8.822;2022-10-16T07:43:13;16.00;99.90
8420;DHT22;4247;48.550;8.822;2022-10-16T07:45:50;16.00;99.90
8420;DHT22;4247;48.550;8.822;2022-10-16T07:48:18;16.00;99.90
8420;DHT22;4247;48.550;8.822;2022-10-16T07:50:45;16.10;99.90
8420;DHT22;4247;48.550;8.822;2022-10-16T07:53:12;16.10;99.90
8420;DHT22;4247;48.550;8.822;2022-10-16T07:55:41;16.10;99.90
8420;DHT22;4247;48.550;8.822;2022-10-16T07:58:08;16.10;99.90
8420;DHT22;4247;48.550;8.822;2022-10-16T08:00:36;16.10;99.90
8420;DHT22;4247;48.550;8.822;2022-10-16T08:03:03;16.20;99.90
8420;DHT22;4247;48.550;8.822;2022-10-16T08:05:32;16.20;99.90
8420;DHT22;4247;48.550;8.822;2022-10-16T08:07:59;16.30;99.90
8420;DHT22;4247;48.550;8.822;2022-10-16T08:10:27;16.40;99.90
8420;DHT22;4247;48.550;8.822;2022-10-16T08:12:56;16.40;99.90
8420;DHT22;4247;48.550;8.822;2022-10-16T08:15:23;16.50;99.90
8420;DHT22;4247;48.550;8.822;2022-10-16T08:17:58;16.60;99.90
8420;DHT22;4247;48.550;8.822;2022-10-16T08:20:26;16.60;99.90
8420;DHT22;4247;48.550;8.822;2022-10-16T08:22:54;16.70;99.90
8420;DHT22;4247;48.550;8.822;2022-10-16T08:25:21;16.80;99.90
8420;DHT22;4247;48.550;8.822;2022-10-16T08:27:49;16.80;99.90
8420;DHT22;4247;48.550;8.822;2022-10-16T08:30:19;16.90;99.90
8420;DHT22;4247;48.550;8.822;2022-10-16T08:32:46;16.90;99.90
8420;DHT22;4247;48.550;8.822;2022-10-16T08:35:14;16.90;99.90
8420;DHT22;4247;48.550;8.822;2022-10-16T08:37:41;16.90;99.90
8420;DHT22;4247;48.550;8.822;2022-10-16T08:40:16;17.00;99.90
8420;DHT22;4247;48.550;8.822;2022-10-16T08:42:57;17.00;99.90
8420;DHT22;4247;48.550;8.822;2022-10-16T08:45:42;17.00;99.90
8420;DHT22;4247;48.550;8.822;2022-10-16T08:48:19;17.00;99.90
8420;DHT22;4247;48.550;8.822;2022-10-16T08:50:48;17.10;99.90
8420;DHT22;4247;48.550;8.822;2022-10-16T08:53:20;17.10;99.90
8420;DHT22;4247;48.550;8.822;2022-10-16T08:55:52;17.20;99.90
8420;DHT22;4247;48.550;8.822;2022-10-16T08:58:21;17.30;99.90
8420;DHT22;4247;48.550;8.822;2022-10-16T09:00:53;17.40;99.90
8420;DHT22;4247;48.550;8.822;2022-10-16T09:03:32;17.50;99.90
8420;DHT22;4247;48.550;8.822;2022-10-16T09:06:37;17.50;99.90
8420;DHT22;4247;48.550;8.822;2022-10-16T09:09:18;17.60;99.90
8420;DHT22;4247;48.550;8.822;2022-10-16T09:11:51;17.60;99.90
8420;DHT22;4247;48.550;8.822;2022-10-16T09:14:37;17.80;99.90
8420;DHT22;4247;48.550;8.822;2022-10-16T09:17:20;17.80;99.90
8420;DHT22;4247;48.550;8.822;2022-10-16T09:19:53;17.90;99.90
8420;DHT22;4247;48.550;8.822;2022-10-16T09:22:26;17.90;99.90
8420;DHT22;4247;48.550;8.822;2022-10-16T09:24:55;18.00;99.90
8420;DHT22;4247;48.550;8.822;2022-10-16T09:27:26;18.10;99.90
8420;DHT22;4247;48.550;8.822;2022-10-16T09:29:54;18.20;99.90
8420;DHT22;4247;48.550;8.822;2022-10-16T09:32:22;18.30;99.90
8420;DHT22;4247;48.550;8.822;2022-10-16T09:34:52;18.40;99.90
8420;DHT22;4247;48.550;8.822;2022-10-16T09:37:21;18.50;99.90
8420;DHT22;4247;48.550;8.822;2022-10-16T09:39:50;18.50;99.90
8420;DHT22;4247;48.550;8.822;2022-10-16T09:42:18;18.50;99.90
8420;DHT22;4247;48.550;8.822;2022-10-16T09:44:50;18.50;99.90
8420;DHT22;4247;48.550;8.822;2022-10-16T09:47:23;18.40;99.90
8420;DHT22;4247;48.550;8.822;2022-10-16T09:49:51;18.40;99.90
8420;DHT22;4247;48.550;8.822;2022-10-16T09:52:19;18.40;99.90
8420;DHT22;4247;48.550;8.822;2022-10-16T09:54:54;18.40;99.90
8420;DHT22;4247;48.550;8.822;2022-10-16T09:57:22;18.30;99.90
8420;DHT22;4247;48.550;8.822;2022-10-16T09:59:51;18.30;99.90
8420;DHT22;4247;48.550;8.822;2022-10-16T10:02:20;18.30;99.90
8420;DHT22;4247;48.550;8.822;2022-10-16T10:04:54;18.20;99.90
8420;DHT22;4247;48.550;8.822;2022-10-16T10:07:24;18.20;99.90
8420;DHT22;4247;48.550;8.822;2022-10-16T10:09:53;18.20;99.90
8420;DHT22;4247;48.550;8.822;2022-10-16T10:12:23;18.20;99.90
8420;DHT22;4247;48.550;8.822;2022-10-16T10:14:51;18.30;99.90
8420;DHT22;4247;48.550;8.822;2022-10-16T10:17:20;18.40;99.90
8420;DHT22;4247;48.550;8.822;2022-10-16T10:19:52;18.50;99.90
8420;DHT22;4247;48.550;8.822;2022-10-16T10:22:30;18.50;99.90
8420;DHT22;4247;48.550;8.822;2022-10-16T10:25:07;18.60;99.90
8420;DHT22;4247;48.550;8.822;2022-10-16T10:27:46;18.70;99.90
8420;DHT22;4247;48.550;8.822;2022-10-16T10:30:18;18.80;99.90
8420;DHT22;4247;48.550;8.822;2022-10-16T10:33:02;18.90;99.90
8420;DHT22;4247;48.550;8.822;2022-10-16T10:35:43;18.90;99.90
8420;DHT22;4247;48.550;8.822;2022-10-16T10:38:24;19.00;99.90
8420;DHT22;4247;48.550;8.822;2022-10-16T10:41:02;19.10;99.90
8420;DHT22;4247;48.550;8.822;2022-10-16T10:43:43;19.20;99.90
8420;DHT22;4247;48.550;8.822;2022-10-16T10:46:18;19.30;99.90
8420;DHT22;4247;48.550;8.822;2022-10-16T10:49:02;19.40;99.90
8420;DHT22;4247;48.550;8.822;2022-10-16T10:51:40;19.40;99.90
8420;DHT22;4247;48.550;8.822;2022-10-16T10:54:15;19.50;99.90
8420;DHT22;4247;48.550;8.822;2022-10-16T10:56:50;19.50;99.90
8420;DHT22;4247;48.550;8.822;2022-10-16T11:02:23;19.70;99.90
8420;DHT22;4247;48.550;8.822;2022-10-16T11:05:19;19.90;99.90
8420;DHT22;4247;48.550;8.822;2022-10-16T11:07:54;20.00;99.90
8420;DHT22;4247;48.550;8.822;2022-10-16T11:10:24;20.10;99.90
8420;DHT22;4247;48.550;8.822;2022-10-16T11:12:57;20.30;99.90
8420;DHT22;4247;48.550;8.822;2022-10-16T11:15:29;20.40;99.90
8420;DHT22;4247;48.550;8.822;2022-10-16T11:18:03;20.50;99.90
8420;DHT22;4247;48.550;8.822;2022-10-16T11:20:33;20.50;99.90
8420;DHT22;4247;48.550;8.822;2022-10-16T11:23:10;20.60;99.90
8420;DHT22;4247;48.550;8.822;2022-10-16T11:25:42;20.70;99.90
8420;DHT22;4247;48.550;8.822;2022-10-16T11:28:15;20.70;99.90
8420;DHT22;4247;48.550;8.822;2022-10-16T11:30:49;20.70;99.90
8420;DHT22;4247;48.550;8.822;2022-10-16T11:33:26;20.70;99.90
8420;DHT22;4247;48.550;8.822;2022-10-16T11:36:00;20.70;99.90
8420;DHT22;4247;48.550;8.822;2022-10-16T11:38:39;20.70;99.90
8420;DHT22;4247;48.550;8.822;2022-10-16T11:41:15;20.60;99.90
8420;DHT22;4247;48.550;8.822;2022-10-16T11:43:51;20.60;99.90
8420;DHT22;4247;48.550;8.822;2022-10-16T11:46:22;20.60;99.90
8420;DHT22;4247;48.550;8.822;2022-10-16T11:48:55;20.60;99.90
8420;DHT22;4247;48.550;8.822;2022-10-16T11:51:31;20.60;99.90
8420;DHT22;4247;48.550;8.822;2022-10-16T11:54:07;20.60;99.90
8420;DHT22;4247;48.550;8.822;2022-10-16T11:56:38;20.70;99.90
8420;DHT22;4247;48.550;8.822;2022-10-16T11:59:16;20.70;99.90
8420;DHT22;4247;48.550;8.822;2022-10-16T12:01:49;20.70;99.90
8420;DHT22;4247;48.550;8.822;2022-10-16T12:04:23;20.80;99.90
8420;DHT22;4247;48.550;8.822;2022-10-16T12:06:57;20.80;99.90
8420;DHT22;4247;48.550;8.822;2022-10-16T12:09:29;20.90;99.90
8420;DHT22;4247;48.550;8.822;2022-10-16T12:11:58;21.00;99.90
8420;DHT22;4247;48.550;8.822;2022-10-16T12:14:37;21.00;99.90
8420;DHT22;4247;48.550;8.822;2022-10-16T12:17:24;21.10;99.90
8420;DHT22;4247;48.550;8.822;2022-10-16T12:19:59;21.10;99.90
8420;DHT22;4247;48.550;8.822;2022-10-16T12:22:28;21.10;99.90
8420;DHT22;4247;48.550;8.822;2022-10-16T12:24:58;21.10;99.90
8420;DHT22;4247;48.550;8.822;2022-10-16T12:27:29;21.10;99.90
8420;DHT22;4247;48.550;8.822;2022-10-16T12:29:58;21.10;99.90
8420;DHT22;4247;48.550;8.822;2022-10-16T12:32:31;21.10;99.90
8420;DHT22;4247;48.550;8.822;2022-10-16T12:34:59;21.10;99.90
8420;DHT22;4247;48.550;8.822;2022-10-16T12:37:33;21.10;99.90
8420;DHT22;4247;48.550;8.822;2022-10-16T12:40:12;21.20;99.90
8420;DHT22;4247;48.550;8.822;2022-10-16T12:42:40;21.20;99.90
8420;DHT22;4247;48.550;8.822;2022-10-16T12:45:26;21.30;99.90
8420;DHT22;4247;48.550;8.822;2022-10-16T12:47:55;21.30;99.90
8420;DHT22;4247;48.550;8.822;2022-10-16T12:50:26;21.30;99.90
8420;DHT22;4247;48.550;8.822;2022-10-16T12:52:53;21.20;99.90
8420;DHT22;4247;48.550;8.822;2022-10-16T12:55:22;21.20;99.90
8420;DHT22;4247;48.550;8.822;2022-10-16T12:58:03;21.20;99.90
8420;DHT22;4247;48.550;8.822;2022-10-16T13:00:35;21.20;99.90
8420;DHT22;4247;48.550;8.822;2022-10-16T13:03:35;21.20;99.90
8420;DHT22;4247;48.550;8.822;2022-10-16T13:06:19;21.20;99.90
8420;DHT22;4247;48.550;8.822;2022-10-16T13:09:10;21.10;99.90
8420;DHT22;4247;48.550;8.822;2022-10-16T13:17:54;21.00;99.90
8420;DHT22;4247;48.550;8.822;2022-10-16T13:20:29;21.00;99.90
8420;DHT22;4247;48.550;8.822;2022-10-16T13:23:05;21.00;99.90
8420;DHT22;4247;48.550;8.822;2022-10-16T13:25:44;21.00;99.90
8420;DHT22;4247;48.550;8.822;2022-10-16T13:28:13;21.00;99.90
8420;DHT22;4247;48.550;8.822;2022-10-16T13:30:42;21.00;99.90
8420;DHT22;4247;48.550;8.822;2022-10-16T13:33:16;21.10;99.90
8420;DHT22;4247;48.550;8.822;2022-10-16T13:35:49;21.10;99.90
8420;DHT22;4247;48.550;8.822;2022-10-16T13:38:18;21.10;99.90
8420;DHT22;4247;48.550;8.822;2022-10-16T13:40:51;21.10;99.90
8420;DHT22;4247;48.550;8.822;2022-10-16T13:43:20;21.20;99.90
8420;DHT22;4247;48.550;8.822;2022-10-16T13:46:00;21.20;99.90
8420;DHT22;4247;48.550;8.822;2022-10-16T13:48:31;21.20;99.90
8420;DHT22;4247;48.550;8.822;2022-10-16T13:51:13;21.30;99.90
8420;DHT22;4247;48.550;8.822;2022-10-16T13:53:41;21.30;99.90
8420;DHT22;4247;48.550;8.822;2022-10-16T13:56:12;21.30;99.90
8420;DHT22;4247;48.550;8.822;2022-10-16T13:58:40;21.40;99.90
8420;DHT22;4247;48.550;8.822;2022-10-16T14:01:16;21.40;99.90
8420;DHT22;4247;48.550;8.822;2022-10-16T14:03:46;21.40;99.90
8420;DHT22;4247;48.550;8.822;2022-10-16T14:06:20;21.40;99.90
8420;DHT22;4247;48.550;8.822;2022-10-16T14:08:54;21.40;99.90
8420;DHT22;4247;48.550;8.822;2022-10-16T14:11:23;21.50;99.90
8420;DHT22;4247;48.550;8.822;2022-10-16T14:13:51;21.50;99.90
8420;DHT22;4247;48.550;8.822;2022-10-16T14:16:21;21.50;99.90
8420;DHT22;4247;48.550;8.822;2022-10-16T14:18:56;21.50;99.90
8420;DHT22;4247;48.550;8.822;2022-10-16T14:21:24;21.50;99.90
8420;DHT22;4247;48.550;8.822;2022-10-16T14:23:52;21.50;99.90
8420;DHT22;4247;48.550;8.822;2022-10-16T14:26:21;21.50;99.90
8420;DHT22;4247;48.550;8.822;2022-10-16T14:29:00;21.50;99.90
8420;DHT22;4247;48.550;8.822;2022-10-16T14:31:31;21.50;99.90
8420;DHT22;4247;48.550;8.822;2022-10-16T14:34:00;21.40;99.90
8420;DHT22;4247;48.550;8.822;2022-10-16T14:36:30;21.40;99.90
8420;DHT22;4247;48.550;8.822;2022-10-16T14:39:00;21.30;99.90
8420;DHT22;4247;48.550;8.822;2022-10-16T14:41:29;21.20;99.90
8420;DHT22;4247;48.550;8.822;2022-10-16T14:44:00;21.10;99.90
8420;DHT22;4247;48.550;8.822;2022-10-16T14:46:32;21.10;99.90
8420;DHT22;4247;48.550;8.822;2022-10-16T14:49:04;21.00;99.90
8420;DHT22;4247;48.550;8.822;2022-10-16T14:51:40;21.00;99.90
8420;DHT22;4247;48.550;8.822;2022-10-16T14:54:08;20.90;99.90
8420;DHT22;4247;48.550;8.822;2022-10-16T14:56:45;20.80;99.90
8420;DHT22;4247;48.550;8.822;2022-10-16T14:59:16;20.80;99.90
8420;DHT22;4247;48.550;8.822;2022-10-16T15:01:44;20.70;99.90
8420;DHT22;4247;48.550;8.822;2022-10-16T15:04:13;20.70;99.90
8420;DHT22;4247;48.550;8.822;2022-10-16T15:06:44;20.70;99.90
8420;DHT22;4247;48.550;8.822;2022-10-16T15:09:10;20.60;99.90
8420;DHT22;4247;48.550;8.822;2022-10-16T15:11:37;20.60;99.90
8420;DHT22;4247;48.550;8.822;2022-10-16T15:14:05;20.50;99.90
8420;DHT22;4247;48.550;8.822;2022-10-16T15:16:32;20.50;99.90
8420;DHT22;4247;48.550;8.822;2022-10-16T15:19:01;20.40;99.90
8420;DHT22;4247;48.550;8.822;2022-10-16T15:21:30;20.30;99.90
8420;DHT22;4247;48.550;8.822;2022-10-16T15:23:59;20.30;99.90
8420;DHT22;4247;48.550;8.822;2022-10-16T15:26:27;20.30;99.90
8420;DHT22;4247;48.550;8.822;2022-10-16T15:28:55;20.20;99.90
8420;DHT22;4247;48.550;8.822;2022-10-16T15:31:22;20.20;99.90
8420;DHT22;4247;48.550;8.822;2022-10-16T15:33:50;20.10;99.90
8420;DHT22;4247;48.550;8.822;2022-10-16T15:36:25;20.10;99.90
8420;DHT22;4247;48.550;8.822;2022-10-16T15:38:56;20.10;99.90
8420;DHT22;4247;48.550;8.822;2022-10-16T15:41:23;20.00;99.90
8420;DHT22;4247;48.550;8.822;2022-10-16T15:43:50;20.00;99.90
8420;DHT22;4247;48.550;8.822;2022-10-16T15:46:19;19.90;99.90
8420;DHT22;4247;48.550;8.822;2022-10-16T15:48:47;19.80;99.90
8420;DHT22;4247;48.550;8.822;2022-10-16T15:51:16;19.80;99.90
8420;DHT22;4247;48.550;8.822;2022-10-16T15:53:43;19.80;99.90
8420;DHT22;4247;48.550;8.822;2022-10-16T15:56:13;19.70;99.90
8420;DHT22;4247;48.550;8.822;2022-10-16T15:58:41;19.70;99.90
8420;DHT22;4247;48.550;8.822;2022-10-16T16:01:08;19.60;99.90
8420;DHT22;4247;48.550;8.822;2022-10-16T16:03:39;19.60;99.90
8420;DHT22;4247;48.550;8.822;2022-10-16T16:06:07;19.50;99.90
8420;DHT22;4247;48.550;8.822;2022-10-16T16:08:35;19.50;99.90
8420;DHT22;4247;48.550;8.822;2022-10-16T16:11:04;19.40;99.90
8420;DHT22;4247;48.550;8.822;2022-10-16T16:13:32;19.30;99.90
8420;DHT22;4247;48.550;8.822;2022-10-16T16:15:59;19.30;99.90
8420;DHT22;4247;48.550;8.822;2022-10-16T16:18:26;19.30;99.90
8420;DHT22;4247;48.550;8.822;2022-10-16T16:20:54;19.20;99.90
8420;DHT22;4247;48.550;8.822;2022-10-16T16:23:21;19.10;99.90
8420;DHT22;4247;48.550;8.822;2022-10-16T16:26:03;19.00;99.90
8420;DHT22;4247;48.550;8.822;2022-10-16T16:28:31;19.00;99.90
8420;DHT22;4247;48.550;8.822;2022-10-16T16:30:58;18.90;99.90
8420;DHT22;4247;48.550;8.822;2022-10-16T16:33:26;18.80;99.90
8420;DHT22;4247;48.550;8.822;2022-10-16T16:35:57;18.70;99.90